createdAt,value
2018-09-14T00:02:18.119Z,96164.76
2018-09-14T00:04:46.652Z,96163.90
2018-09-14T00:07:15.191Z,96166.58
2018-09-14T00:09:43.836Z,96163.38
2018-09-14T00:12:12.376Z,96162.00
2018-09-14T00:14:40.928Z,96161.18
2018-09-14T00:17:09.590Z,96156.22
2018-09-14T00:19:38.171Z,96153.13
2018-09-14T00:22:06.995Z,96150.75
2018-09-14T00:24:35.520Z,96145.05
2018-09-14T00:27:04.162Z,96147.03
2018-09-14T00:29:32.704Z,96143.68
2018-09-14T00:32:01.243Z,96137.83
2018-09-14T00:34:29.848Z,96135.53
2018-09-14T00:36:58.383Z,96134.30
2018-09-14T00:39:26.916Z,96130.59
2018-09-14T00:41:55.493Z,96128.84
2018-09-14T00:44:24.110Z,96121.02
2018-09-14T00:46:52.633Z,96126.90
2018-09-14T00:49:21.168Z,96118.97
2018-09-14T00:51:49.721Z,96118.16
2018-09-14T00:54:18.271Z,96117.03
2018-09-14T00:56:46.836Z,96124.62
2018-09-14T00:59:15.462Z,96119.27
2018-09-14T01:01:44.681Z,96114.13
2018-09-14T01:04:13.220Z,96127.39
2018-09-14T01:06:41.938Z,96137.70
2018-09-14T01:09:18.401Z,96142.20
2018-09-14T01:11:47.367Z,96142.73
2018-09-14T01:14:15.907Z,96147.36
2018-09-14T01:16:44.802Z,96150.72
2018-09-14T01:19:13.440Z,96149.30
2018-09-14T01:21:42.056Z,96137.88
2018-09-14T01:24:10.597Z,96133.97
2018-09-14T01:26:39.154Z,96131.50
2018-09-14T01:29:07.674Z,96133.50
2018-09-14T01:31:36.216Z,96127.11
2018-09-14T01:34:04.790Z,96124.29
2018-09-14T01:36:33.327Z,96128.76
2018-09-14T01:39:02.714Z,96124.19
2018-09-14T01:41:31.270Z,96122.88
2018-09-14T01:43:59.861Z,96116.00
2018-09-14T01:46:28.444Z,96113.91
2018-09-14T01:48:57.000Z,96109.67
2018-09-14T01:51:25.627Z,96115.09
2018-09-14T01:53:54.193Z,96120.16
2018-09-14T01:56:22.779Z,96128.28
2018-09-14T01:58:51.330Z,96133.95
2018-09-14T02:01:20.204Z,96140.88
2018-09-14T02:03:48.815Z,96134.22
2018-09-14T02:06:17.371Z,96130.88
2018-09-14T02:08:46.119Z,96134.79
2018-09-14T02:11:15.561Z,96137.76
2018-09-14T02:13:44.326Z,96133.25
2018-09-14T02:16:12.876Z,96146.39
2018-09-14T02:18:41.412Z,96141.21
2018-09-14T02:21:10.028Z,96143.81
2018-09-14T02:23:38.559Z,96138.91
2018-09-14T02:26:07.264Z,96137.76
2018-09-14T02:28:35.946Z,96143.78
2018-09-14T02:31:04.543Z,96140.36
2018-09-14T02:33:33.088Z,96139.70
2018-09-14T02:36:01.629Z,96134.67
2018-09-14T02:38:30.143Z,96138.42
2018-09-14T02:40:58.732Z,96140.76
2018-09-14T02:43:27.415Z,96142.23
2018-09-14T02:45:55.936Z,96146.51
2018-09-14T02:48:24.560Z,96147.66
2018-09-14T02:50:53.113Z,96143.48
2018-09-14T02:53:21.729Z,96148.41
2018-09-14T02:55:50.338Z,96148.23
2018-09-14T02:58:19.063Z,96141.69
2018-09-14T03:00:47.611Z,96144.78
2018-09-14T03:03:16.148Z,96145.68
2018-09-14T03:05:44.784Z,96147.77
2018-09-14T03:08:13.309Z,96147.95
2018-09-14T03:10:41.839Z,96149.88
2018-09-14T03:13:10.647Z,96149.43
2018-09-14T03:15:39.411Z,96152.09
2018-09-14T03:18:08.001Z,96151.29
2018-09-14T03:20:36.523Z,96155.20
2018-09-14T03:23:05.066Z,96156.14
2018-09-14T03:25:33.604Z,96161.98
2018-09-14T03:28:02.155Z,96159.84
2018-09-14T03:30:30.707Z,96159.30
2018-09-14T03:32:59.238Z,96158.16
2018-09-14T03:35:27.887Z,96159.13
2018-09-14T03:37:56.432Z,96163.75
2018-09-14T03:40:24.972Z,96161.60
2018-09-14T03:42:53.514Z,96178.89
2018-09-14T03:45:22.125Z,96179.17
2018-09-14T03:47:52.899Z,96174.43
2018-09-14T03:50:22.909Z,96173.59
2018-09-14T03:52:51.547Z,96168.19
2018-09-14T03:55:20.095Z,96175.84
2018-09-14T03:57:48.649Z,96178.33
2018-09-14T04:00:17.254Z,96174.59
2018-09-14T04:02:46.632Z,96174.08
2018-09-14T04:05:15.186Z,96174.89
2018-09-14T04:07:44.354Z,96173.77
2018-09-14T04:10:13.065Z,96172.29
2018-09-14T04:12:41.604Z,96181.95
2018-09-14T04:15:11.009Z,96186.77
2018-09-14T04:17:39.562Z,96183.67
2018-09-14T04:20:08.899Z,96186.30
2018-09-14T04:22:38.270Z,96192.16
2018-09-14T04:25:06.817Z,96199.30
2018-09-14T04:27:35.458Z,96199.13
2018-09-14T04:30:04.437Z,96203.31
2018-09-14T04:32:32.984Z,96200.36
2018-09-14T04:35:01.999Z,96204.59
2018-09-14T04:37:30.525Z,96197.76
2018-09-14T04:39:59.045Z,96204.95
2018-09-14T04:42:27.608Z,96198.77
2018-09-14T04:44:56.161Z,96200.23
2018-09-14T04:47:24.705Z,96196.80
2018-09-14T04:49:53.296Z,96193.66
2018-09-14T04:52:21.848Z,96205.70
2018-09-14T04:54:50.405Z,96209.75
2018-09-14T04:57:18.967Z,96205.85
2018-09-14T04:59:47.537Z,96204.88
2018-09-14T05:02:16.729Z,96203.23
2018-09-14T05:04:45.281Z,96207.90
2018-09-14T05:07:13.858Z,96208.88
2018-09-14T05:09:42.452Z,96205.58
2018-09-14T05:12:11.060Z,96197.84
2018-09-14T05:14:39.629Z,96202.28
2018-09-14T05:17:08.199Z,96204.59
2018-09-14T05:19:36.797Z,96206.25
2018-09-14T05:22:05.349Z,96209.16
2018-09-14T05:24:34.048Z,96208.67
2018-09-14T05:27:02.564Z,96206.54
2018-09-14T05:29:31.096Z,96202.11
2018-09-14T05:31:59.649Z,96210.27
2018-09-14T05:34:28.188Z,96212.35
2018-09-14T05:36:56.741Z,96221.46
2018-09-14T05:39:25.289Z,96207.15
2018-09-14T05:41:53.977Z,96214.66
2018-09-14T05:44:22.517Z,96222.61
2018-09-14T05:46:51.160Z,96222.26
2018-09-14T05:49:19.739Z,96222.90
2018-09-14T05:51:48.284Z,96227.27
2018-09-14T05:54:16.839Z,96226.45
2018-09-14T05:56:45.407Z,96231.13
2018-09-14T05:59:13.986Z,96233.24
2018-09-14T06:01:43.652Z,96232.89
2018-09-14T06:04:12.190Z,96234.08
2018-09-14T06:06:40.722Z,96234.38
2018-09-14T06:09:11.016Z,96236.33
2018-09-14T06:11:39.628Z,96235.36
2018-09-14T06:14:08.244Z,96238.42
2018-09-14T06:16:36.908Z,96241.52
2018-09-14T06:19:05.587Z,96248.98
2018-09-14T06:21:34.257Z,96247.85
2018-09-14T06:24:02.906Z,96251.40
2018-09-14T06:26:31.659Z,96250.58
2018-09-14T06:29:00.238Z,96246.54
2018-09-14T06:31:28.775Z,96246.67
2018-09-14T06:33:57.351Z,96247.67
2018-09-14T06:36:25.904Z,96246.66
2018-09-14T06:38:54.510Z,96246.60
2018-09-14T06:41:23.085Z,96252.73
2018-09-14T06:43:51.656Z,96255.31
2018-09-14T06:46:20.339Z,96251.05
2018-09-14T06:48:48.888Z,96251.87
2018-09-14T06:51:17.449Z,96250.69
2018-09-14T06:53:45.991Z,96208.40
2018-09-14T06:56:14.741Z,96250.13
2018-09-14T06:58:43.290Z,96251.10
2018-09-14T07:01:11.832Z,96250.08
2018-09-14T07:03:40.479Z,96251.32
2018-09-14T07:06:09.080Z,96255.66
2018-09-14T07:08:37.622Z,96262.44
2018-09-14T07:11:06.166Z,96265.02
2018-09-14T07:13:34.778Z,96264.75
2018-09-14T07:16:03.379Z,96272.80
2018-09-14T07:18:31.923Z,96274.05
2018-09-14T07:21:00.488Z,96270.10
2018-09-14T07:23:29.129Z,96269.78
2018-09-14T07:25:57.689Z,96278.95
2018-09-14T07:28:26.260Z,96281.27
2018-09-14T07:30:54.816Z,96281.57
2018-09-14T07:33:23.357Z,96281.94
2018-09-14T07:35:51.907Z,96286.14
2018-09-14T07:38:20.448Z,96285.81
2018-09-14T07:40:48.979Z,96282.98
2018-09-14T07:43:17.546Z,96289.98
2018-09-14T07:45:46.107Z,96288.46
2018-09-14T07:48:14.693Z,96296.73
2018-09-14T07:50:43.267Z,96305.27
2018-09-14T07:53:11.827Z,96297.59
2018-09-14T07:55:40.396Z,96293.80
2018-09-14T07:58:09.012Z,96295.36
2018-09-14T08:00:37.667Z,96297.11
2018-09-14T08:03:07.107Z,96303.89
2018-09-14T08:05:35.727Z,96305.20
2018-09-14T08:08:04.304Z,96309.19
2018-09-14T08:10:32.837Z,96309.80
2018-09-14T08:13:01.380Z,96314.27
2018-09-14T08:15:29.957Z,96316.80
2018-09-14T08:17:58.520Z,96320.04
2018-09-14T08:20:27.100Z,96318.45
2018-09-14T08:22:55.639Z,96319.13
2018-09-14T08:25:24.189Z,96321.56
2018-09-14T08:27:52.758Z,96326.29
2018-09-14T08:30:21.312Z,96322.12
2018-09-14T08:32:49.871Z,96320.25
2018-09-14T08:35:18.508Z,96330.68
2018-09-14T08:37:47.093Z,96331.50
2018-09-14T08:40:15.635Z,96328.75
2018-09-14T08:42:44.173Z,96330.39
2018-09-14T08:45:12.867Z,96329.34
2018-09-14T08:47:41.418Z,96330.42
2018-09-14T08:50:09.969Z,96335.47
2018-09-14T08:52:38.524Z,96336.54
2018-09-14T08:55:07.200Z,96340.61
2018-09-14T08:57:35.824Z,96341.73
2018-09-14T09:00:04.412Z,96344.52
2018-09-14T09:02:32.971Z,96339.91
2018-09-14T09:05:01.573Z,96344.48
2018-09-14T09:07:30.138Z,96344.76
2018-09-14T09:09:58.679Z,96350.55
2018-09-14T09:12:27.232Z,96351.55
2018-09-14T09:14:55.996Z,96357.58
2018-09-14T09:17:24.584Z,96355.73
2018-09-14T09:19:53.187Z,96350.30
2018-09-14T09:22:21.736Z,96356.03
2018-09-14T09:24:50.274Z,96355.97
2018-09-14T09:27:18.839Z,96349.57
2018-09-14T09:29:47.489Z,96351.96
2018-09-14T09:32:16.051Z,96353.23
2018-09-14T09:34:44.600Z,96350.89
2018-09-14T09:37:13.182Z,96352.30
2018-09-14T09:39:41.810Z,96353.72
2018-09-14T09:42:10.385Z,96356.88
2018-09-14T09:44:38.932Z,96358.97
2018-09-14T09:47:07.515Z,96357.52
2018-09-14T09:49:36.060Z,96350.87
2018-09-14T09:52:04.635Z,96355.61
2018-09-14T09:54:33.393Z,96350.42
2018-09-14T09:57:02.101Z,96349.18
2018-09-14T09:59:30.704Z,96345.91
2018-09-14T10:02:04.481Z,96346.84
2018-09-14T10:04:34.276Z,96348.90
2018-09-14T10:07:02.884Z,96351.11
2018-09-14T10:09:31.433Z,96348.38
2018-09-14T10:12:00.021Z,96348.33
2018-09-14T10:14:28.604Z,96351.82
2018-09-14T10:16:57.469Z,96352.45
2018-09-14T10:19:26.747Z,96345.45
2018-09-14T10:21:55.701Z,96348.18
2018-09-14T10:24:24.305Z,96350.84
2018-09-14T10:26:52.859Z,96338.21
2018-09-14T10:29:21.416Z,96342.50
2018-09-14T10:31:49.998Z,96339.97
2018-09-14T10:34:18.553Z,96335.72
2018-09-14T10:36:47.561Z,96336.72
2018-09-14T10:39:16.160Z,96338.08
2018-09-14T10:41:44.784Z,96339.66
2018-09-14T10:44:13.324Z,96339.66
2018-09-14T10:46:41.912Z,96338.16
2018-09-14T10:49:19.590Z,96342.01
2018-09-14T10:51:59.923Z,96338.34
2018-09-14T10:54:28.519Z,96340.67
2018-09-14T10:56:57.132Z,96333.30
2018-09-14T10:59:25.666Z,96326.85
2018-09-14T11:01:54.246Z,96328.94
2018-09-14T11:04:22.879Z,96327.63
2018-09-14T11:06:51.567Z,96325.36
2018-09-14T11:09:20.116Z,96329.64
2018-09-14T11:11:48.655Z,96336.09
2018-09-14T11:14:17.237Z,96350.82
2018-09-14T11:16:45.793Z,96369.16
2018-09-14T11:19:14.445Z,96374.39
2018-09-14T11:21:43.031Z,96381.34
2018-09-14T11:24:11.568Z,96372.59
2018-09-14T11:26:40.117Z,96369.56
2018-09-14T11:29:08.690Z,96357.11
2018-09-14T11:31:37.338Z,96351.34
2018-09-14T11:34:05.933Z,96360.95
2018-09-14T11:36:34.501Z,96364.50
2018-09-14T11:39:03.164Z,96359.39
2018-09-14T11:41:31.792Z,96349.42
2018-09-14T11:44:00.349Z,96346.84
2018-09-14T11:46:28.917Z,96345.25
2018-09-14T11:48:57.475Z,96343.75
2018-09-14T11:51:26.050Z,96347.27
2018-09-14T11:53:54.681Z,96353.05
2018-09-14T11:56:23.304Z,96350.35
2018-09-14T11:58:51.859Z,96348.77
2018-09-14T12:01:20.509Z,96349.52
2018-09-14T12:03:49.762Z,96347.65
2018-09-14T12:06:18.318Z,96353.98
2018-09-14T12:08:46.980Z,96360.14
2018-09-14T12:11:15.546Z,96357.99
2018-09-14T12:13:44.230Z,96364.33
2018-09-14T12:16:12.765Z,96361.24
2018-09-14T12:18:42.189Z,96357.91
2018-09-14T12:21:10.799Z,96357.64
2018-09-14T12:23:39.372Z,96359.19
2018-09-14T12:26:07.920Z,96360.49
2018-09-14T12:28:36.476Z,96362.86
2018-09-14T12:31:05.020Z,96366.19
2018-09-14T12:33:33.685Z,96364.16
2018-09-14T12:36:02.249Z,96362.46
2018-09-14T12:38:30.796Z,96356.67
2018-09-14T12:40:59.358Z,96360.64
2018-09-14T12:43:27.911Z,96358.48
2018-09-14T12:45:56.461Z,96358.34
2018-09-14T12:48:25.028Z,96362.97
2018-09-14T12:50:53.568Z,96361.08
2018-09-14T12:53:22.113Z,96361.70
2018-09-14T12:55:50.728Z,96357.45
2018-09-14T12:58:19.287Z,96358.34
2018-09-14T13:00:47.853Z,96356.84
2018-09-14T13:03:16.405Z,96355.48
2018-09-14T13:05:45.074Z,96357.06
2018-09-14T13:08:13.625Z,96354.45
2018-09-14T13:10:42.188Z,96355.63
2018-09-14T13:13:10.781Z,96358.47
2018-09-14T13:15:39.356Z,96359.70
2018-09-14T13:18:07.924Z,96355.53
2018-09-14T13:20:36.506Z,96357.84
2018-09-14T13:23:05.188Z,96360.22
2018-09-14T13:25:33.738Z,96366.80
2018-09-14T13:28:02.359Z,96371.94
2018-09-14T13:30:31.047Z,96369.88
2018-09-14T13:32:59.612Z,96366.86
2018-09-14T13:35:28.155Z,96365.82
2018-09-14T13:37:56.754Z,96365.97
2018-09-14T13:40:25.398Z,96373.70
2018-09-14T13:42:53.972Z,96369.75
2018-09-14T13:45:22.642Z,96370.39
2018-09-14T13:47:51.284Z,96375.35
2018-09-14T13:50:21.295Z,96376.06
2018-09-14T13:52:52.039Z,96382.28
2018-09-14T13:55:21.979Z,96377.77
2018-09-14T13:57:50.554Z,96379.56
2018-09-14T14:00:19.133Z,96379.23
2018-09-14T14:02:49.314Z,96380.37
2018-09-14T14:05:17.869Z,96377.19
2018-09-14T14:07:46.621Z,96376.23
2018-09-14T14:10:17.451Z,96375.42
2018-09-14T14:12:45.963Z,96378.08
2018-09-14T14:15:14.509Z,96378.97
2018-09-14T14:17:43.108Z,96379.78
2018-09-14T14:20:13.442Z,96378.77
2018-09-14T14:22:42.212Z,96378.26
2018-09-14T14:25:10.762Z,96378.59
2018-09-14T14:27:39.451Z,96376.31
2018-09-14T14:30:08.142Z,96379.14
2018-09-14T14:32:36.705Z,96380.63
2018-09-14T14:35:05.778Z,96380.96
2018-09-14T14:37:34.390Z,96382.27
2018-09-14T14:40:02.983Z,96380.78
2018-09-14T14:42:32.531Z,96387.78
2018-09-14T14:45:01.140Z,96372.25
2018-09-14T14:47:31.463Z,96382.78
2018-09-14T14:50:00.024Z,96374.81
2018-09-14T14:52:28.589Z,96375.30
2018-09-14T15:00:38.219Z,96381.33
2018-09-14T15:03:09.060Z,96383.95
2018-09-14T15:05:37.680Z,96387.69
2018-09-14T15:08:06.274Z,96384.08
2018-09-14T15:10:34.832Z,96380.35
2018-09-14T15:13:03.577Z,96373.63
2018-09-14T15:15:32.260Z,96375.93
2018-09-14T15:18:00.897Z,96377.73
2018-09-14T15:20:29.507Z,96374.63
2018-09-14T15:22:58.097Z,96376.62
2018-09-14T15:25:26.640Z,96373.17
2018-09-14T15:27:55.264Z,96370.72
2018-09-14T15:30:23.988Z,96372.44
2018-09-14T15:32:52.839Z,96373.20
2018-09-14T15:35:21.455Z,96367.47
2018-09-14T15:37:50.267Z,96369.47
2018-09-14T15:40:19.000Z,96366.37
2018-09-14T15:42:47.538Z,96373.83
2018-09-14T15:45:16.150Z,96364.20
2018-09-14T15:47:44.781Z,96372.30
2018-09-14T15:50:13.362Z,96369.52
2018-09-14T15:52:41.957Z,96374.86
2018-09-14T15:55:10.908Z,96378.48
2018-09-14T15:57:40.406Z,96378.22
2018-09-14T16:00:09.024Z,96377.17
2018-09-14T16:02:38.123Z,96376.44
2018-09-14T16:05:06.700Z,96378.05
2018-09-14T16:07:35.280Z,96381.95
2018-09-14T16:10:04.013Z,96384.09
2018-09-14T16:12:32.852Z,96386.17
2018-09-14T16:15:01.435Z,96391.70
2018-09-14T16:17:31.238Z,96402.07
2018-09-14T16:19:59.909Z,96397.33
2018-09-14T16:22:28.466Z,96395.66
2018-09-14T16:24:57.457Z,96401.52
2018-09-14T16:27:26.087Z,96402.00
2018-09-14T16:29:54.696Z,96398.50
2018-09-14T16:32:23.250Z,96402.54
2018-09-14T16:34:51.904Z,96403.83
2018-09-14T16:37:20.518Z,96406.43
2018-09-14T16:39:49.038Z,96401.70
2018-09-14T16:42:17.585Z,96398.92
2018-09-14T16:44:46.159Z,96407.73
2018-09-14T16:47:14.769Z,96375.86
2018-09-14T16:49:43.364Z,96405.86
2018-09-14T16:52:11.962Z,96406.98
2018-09-14T16:54:40.605Z,96408.58
2018-09-14T16:57:09.146Z,96403.24
2018-09-14T16:59:37.789Z,96402.25
2018-09-14T17:02:06.958Z,96404.86
2018-09-14T17:04:38.355Z,96398.41
2018-09-14T17:07:08.833Z,96399.58
2018-09-14T17:09:38.162Z,96405.09
2018-09-14T17:12:06.811Z,96409.18
2018-09-14T17:14:35.444Z,96410.20
2018-09-14T17:17:04.073Z,96406.77
2018-09-14T17:19:32.684Z,96409.55
2018-09-14T17:22:01.263Z,96414.11
2018-09-14T17:24:29.824Z,96409.86
2018-09-14T17:27:01.452Z,96411.03
2018-09-14T17:29:29.991Z,96417.23
2018-09-14T17:31:58.568Z,96417.23
2018-09-14T17:34:35.248Z,96420.19
2018-09-14T17:37:04.286Z,96415.03
2018-09-14T17:39:32.866Z,96419.61
2018-09-14T17:42:01.572Z,96422.39
2018-09-14T17:44:30.217Z,96424.81
2018-09-14T17:47:08.904Z,96427.59
2018-09-14T17:49:37.476Z,96421.94
2018-09-14T17:52:06.044Z,96421.94
2018-09-14T17:54:34.657Z,96420.48
2018-09-14T17:57:03.247Z,96419.50
2018-09-14T17:59:31.869Z,96418.06
2018-09-14T18:02:00.475Z,96422.77
2018-09-14T18:04:29.030Z,96427.00
2018-09-14T18:06:57.636Z,96429.61
2018-09-14T18:09:26.261Z,96425.87
2018-09-14T18:12:04.425Z,96425.86
2018-09-14T18:14:32.990Z,96426.67
2018-09-14T18:17:01.528Z,96431.20
2018-09-14T18:19:30.114Z,96435.91
2018-09-14T18:21:58.699Z,96440.16
2018-09-14T18:24:27.260Z,96439.00
2018-09-14T18:26:55.964Z,96436.09
2018-09-14T18:29:24.687Z,96432.67
2018-09-14T18:31:53.273Z,96433.02
2018-09-14T18:34:21.836Z,96439.82
2018-09-14T18:36:50.450Z,96438.86
2018-09-14T18:39:19.029Z,96442.91
2018-09-14T18:41:47.745Z,96446.97
2018-09-14T18:44:25.272Z,96444.70
2018-09-14T18:46:54.205Z,96444.38
2018-09-14T18:49:23.078Z,96445.17
2018-09-14T18:51:51.948Z,96445.51
2018-09-14T18:54:20.786Z,96446.33
2018-09-14T18:56:49.428Z,96450.38
2018-09-14T18:59:33.917Z,96449.56
2018-09-14T19:02:02.497Z,96454.26
2018-09-14T19:04:31.064Z,96450.52
2018-09-14T19:06:59.743Z,96454.09
2018-09-14T19:09:28.315Z,96455.89
2018-09-14T19:11:56.928Z,96453.12
2018-09-14T19:14:25.691Z,96451.64
2018-09-14T19:16:54.253Z,96455.53
2018-09-14T19:19:23.164Z,96456.19
2018-09-14T19:21:51.677Z,96457.65
2018-09-14T19:24:20.376Z,96457.48
2018-09-14T19:26:48.927Z,96457.16
2018-09-14T19:29:17.532Z,96450.67
2018-09-14T19:31:46.186Z,96457.14
2018-09-14T19:34:14.747Z,96457.63
2018-09-14T19:36:43.374Z,96461.52
2018-09-14T19:39:13.082Z,96457.11
2018-09-14T19:41:41.708Z,96462.23
2018-09-14T19:44:22.583Z,96460.08
2018-09-14T19:46:51.139Z,96458.75
2018-09-14T19:49:19.829Z,96453.91
2018-09-14T19:51:48.379Z,96461.01
2018-09-14T19:54:17.093Z,96462.44
2018-09-14T19:56:45.756Z,96462.59
2018-09-14T19:59:14.352Z,96467.34
2018-09-14T20:01:43.535Z,96470.25
2018-09-14T20:04:12.089Z,96467.15
2018-09-14T20:06:40.820Z,96463.42
2018-09-14T20:09:11.669Z,96462.63
2018-09-14T20:11:40.289Z,96459.05
2018-09-14T20:14:20.292Z,96456.62
2018-09-14T20:16:48.872Z,96462.91
2018-09-14T20:19:17.427Z,96458.36
2018-09-14T20:21:46.005Z,96456.05
2018-09-14T20:24:14.574Z,96458.14
2018-09-14T20:26:43.181Z,96458.61
2018-09-14T20:29:12.575Z,96464.08
2018-09-14T20:31:41.256Z,96460.44
2018-09-14T20:34:09.888Z,96463.27
2018-09-14T20:36:38.446Z,96470.22
2018-09-14T20:39:08.974Z,96466.64
2018-09-14T20:41:37.679Z,96463.53
2018-09-14T20:44:08.333Z,96460.41
2018-09-14T20:46:37.106Z,96465.58
2018-09-14T20:49:05.809Z,96467.58
2018-09-14T20:51:34.409Z,96467.62
2018-09-14T20:54:02.977Z,96476.84
2018-09-14T20:56:31.551Z,96476.17
2018-09-14T20:59:00.989Z,96478.89
2018-09-14T21:01:29.716Z,96476.05
2018-09-14T21:03:58.281Z,96481.76
2018-09-14T21:06:26.864Z,96485.96
2018-09-14T21:08:55.464Z,96479.69
2018-09-14T21:11:24.022Z,96489.57
2018-09-14T21:13:52.581Z,96487.24
2018-09-14T21:16:27.957Z,96487.24
2018-09-14T21:18:56.541Z,96485.23
2018-09-14T21:21:25.096Z,96490.39
2018-09-14T21:23:53.714Z,96494.55
2018-09-14T21:26:22.238Z,96491.59
2018-09-14T21:28:50.791Z,96496.05
2018-09-14T21:31:19.353Z,96496.22
2018-09-14T21:33:47.904Z,96490.09
2018-09-14T21:36:16.462Z,96490.28
2018-09-14T21:38:45.008Z,96486.30
2018-09-14T21:41:13.546Z,96490.84
2018-09-14T21:43:42.121Z,96493.17
2018-09-14T21:46:10.668Z,96494.97
2018-09-14T21:48:39.321Z,96492.18
2018-09-14T21:51:07.890Z,96491.33
2018-09-14T21:53:36.552Z,96491.63
2018-09-14T21:56:05.067Z,96494.78
2018-09-14T21:58:33.616Z,96495.91
2018-09-14T22:01:06.346Z,96485.67
2018-09-14T22:03:34.922Z,96493.71
2018-09-14T22:06:03.479Z,96499.00
2018-09-14T22:08:32.028Z,96497.00
2018-09-14T22:11:00.620Z,96499.96
2018-09-14T22:13:29.217Z,96502.08
2018-09-14T22:15:57.775Z,96502.79
2018-09-14T22:18:26.417Z,96497.30
2018-09-14T22:20:55.008Z,96494.86
2018-09-14T22:23:23.657Z,96496.00
2018-09-14T22:25:52.409Z,96501.20
2018-09-14T22:31:11.392Z,96505.95
2018-09-14T22:33:40.058Z,96510.91
2018-09-14T22:36:08.656Z,96512.97
2018-09-14T22:38:37.500Z,96510.77
2018-09-14T22:41:06.065Z,96520.70
2018-09-14T22:43:34.631Z,96520.23
2018-09-14T22:46:03.165Z,96517.37
2018-09-14T22:48:31.772Z,96512.47
2018-09-14T22:51:00.401Z,96513.20
2018-09-14T22:53:29.064Z,96519.88
2018-09-14T22:55:57.648Z,96521.93
2018-09-14T22:58:26.227Z,96515.08
2018-09-14T23:01:00.021Z,96520.25
2018-09-14T23:03:28.529Z,96515.55
2018-09-14T23:05:57.064Z,96512.97
2018-09-14T23:08:25.582Z,96515.84
2018-09-14T23:10:54.331Z,96516.28
2018-09-14T23:13:22.964Z,96513.20
2018-09-14T23:15:59.326Z,96502.53
2018-09-14T23:18:28.379Z,96499.86
2018-09-14T23:20:56.935Z,96508.17
2018-09-14T23:23:25.570Z,96500.88
2018-09-14T23:25:56.178Z,96495.45
2018-09-14T23:28:24.729Z,96508.77
2018-09-14T23:30:53.268Z,96506.41
2018-09-14T23:33:22.058Z,96510.47
2018-09-14T23:35:50.604Z,96513.49
2018-09-14T23:38:19.207Z,96513.97
2018-09-14T23:40:47.833Z,96511.05
2018-09-14T23:43:16.400Z,96509.91
2018-09-14T23:45:44.948Z,96509.94
2018-09-14T23:48:13.565Z,96507.50
2018-09-14T23:50:42.112Z,96502.39
2018-09-14T23:53:10.805Z,96505.39
2018-09-14T23:55:39.360Z,96506.89
2018-09-14T23:58:07.964Z,96505.44
